Time;durP1;ratioP1;P1;durP2;ratioP2;P2;SDS_P1;SDS_P2;PMS_P1;PMS_P2;Temp;Humidity;BMP_temperature;BMP_pressure;BME280_temperature;BME280_humidity;BME280_pressure;Samples;Min_cycle;Max_cycle;Signal;HPM_P1;HPM_P2
2022/11/15 00:01:54;;;;;;;4.38;1.10;;;;;;;;;;4981132;28;20195;-61
2022/11/15 00:04:39;;;;;;;3.15;1.10;;;;;;;;;;4979213;28;20052;-61
2022/11/15 00:07:24;;;;;;;6.18;1.13;;;;;;;;;;4978957;28;20077;-61
2022/11/15 00:10:08;;;;;;;6.32;1.23;;;;;;;;;;4985024;28;20099;-61
2022/11/15 00:12:53;;;;;;;7.90;1.17;;;;;;;;;;4975481;28;20076;-61
2022/11/15 00:15:38;;;;;;;11.23;2.08;;;;;;;;;;4977525;28;20050;-61
2022/11/15 00:18:23;;;;;;;7.95;1.40;;;;;;;;;;4984770;28;20452;-61
2022/11/15 00:21:09;;;;;;;5.35;1.13;;;;;;;;;;4976865;28;20123;-60
2022/11/15 00:23:54;;;;;;;6.78;1.35;;;;;;;;;;4975421;28;20053;-60
2022/11/15 00:26:39;;;;;;;5.05;0.85;;;;;;;;;;4977214;28;20046;-61
2022/11/15 00:29:23;;;;;;;7.43;0.85;;;;;;;;;;4983065;28;20057;-61
2022/11/15 00:32:08;;;;;;;8.80;1.10;;;;;;;;;;4989530;28;20538;-61
2022/11/15 00:34:52;;;;;;;6.32;0.80;;;;;;;;;;4978776;28;20412;-60
2022/11/15 00:37:37;;;;;;;6.20;0.98;;;;;;;;;;4985025;28;20045;-61
2022/11/15 00:40:21;;;;;;;4.65;1.00;;;;;;;;;;4975925;28;20124;-61
2022/11/15 00:43:05;;;;;;;2.92;0.90;;;;;;;;;;4985596;28;20038;-61
2022/11/15 00:45:50;;;;;;;2.88;0.57;;;;;;;;;;4986234;28;20046;-60
2022/11/15 00:48:35;;;;;;;3.22;0.88;;;;;;;;;;4976429;28;20065;-60
2022/11/15 00:51:19;;;;;;;4.43;0.63;;;;;;;;;;4992562;28;20045;-61
2022/11/15 00:54:03;;;;;;;3.38;0.55;;;;;;;;;;4977683;28;20050;-61
2022/11/15 00:56:48;;;;;;;2.70;0.68;;;;;;;;;;4977748;28;20552;-61
2022/11/15 00:59:33;;;;;;;5.78;0.52;;;;;;;;;;4981863;28;20050;-61
2022/11/15 01:02:17;;;;;;;3.92;0.57;;;;;;;;;;4989115;28;20127;-61
2022/11/15 01:05:02;;;;;;;3.17;0.50;;;;;;;;;;4983866;28;20054;-60
2022/11/15 01:07:46;;;;;;;1.25;0.50;;;;;;;;;;4980466;28;20527;-61
2022/11/15 01:10:31;;;;;;;3.30;0.40;;;;;;;;;;4988543;28;20037;-61
2022/11/15 01:13:15;;;;;;;3.50;0.50;;;;;;;;;;4982796;28;20045;-61
2022/11/15 01:16:05;;;;;;;3.05;0.45;;;;;;;;;;4984959;28;20100;-60
2022/11/15 01:18:51;;;;;;;3.38;0.40;;;;;;;;;;4980957;28;20439;-61
2022/11/15 01:21:35;;;;;;;0.50;0.25;;;;;;;;;;4982815;28;20042;-61
2022/11/15 01:24:20;;;;;;;1.95;0.47;;;;;;;;;;4985910;28;20119;-60
2022/11/15 01:27:04;;;;;;;4.95;1.05;;;;;;;;;;4980752;28;20069;-61
2022/11/15 01:29:49;;;;;;;1.70;1.30;;;;;;;;;;4980649;28;20412;-61
2022/11/15 01:32:33;;;;;;;1.65;0.40;;;;;;;;;;4982183;28;20152;-61
2022/11/15 01:35:18;;;;;;;3.63;0.57;;;;;;;;;;4988543;28;20045;-61
2022/11/15 01:38:02;;;;;;;1.05;0.40;;;;;;;;;;4980164;28;20121;-60
2022/11/15 01:40:47;;;;;;;3.03;0.50;;;;;;;;;;4980254;28;20049;-61
2022/11/15 01:43:37;;;;;;;2.15;0.63;;;;;;;;;;4979726;28;20042;-60
2022/11/15 01:46:21;;;;;;;2.97;0.55;;;;;;;;;;4980986;28;20095;-60
2022/11/15 01:49:11;;;;;;;0.75;0.30;;;;;;;;;;4980212;28;20109;-60
2022/11/15 01:51:57;;;;;;;1.65;0.30;;;;;;;;;;4980798;28;20519;-61
2022/11/15 01:54:42;;;;;;;1.33;0.50;;;;;;;;;;4981102;28;20531;-60
2022/11/15 01:57:27;;;;;;;1.00;0.30;;;;;;;;;;4981845;28;20166;-61
2022/11/15 02:00:11;;;;;;;2.22;0.20;;;;;;;;;;4979995;28;20062;-61
2022/11/15 02:02:56;;;;;;;2.28;0.30;;;;;;;;;;4980633;28;20054;-61
2022/11/15 02:05:41;;;;;;;0.68;0.15;;;;;;;;;;4980814;28;20096;-61
2022/11/15 02:08:26;;;;;;;0.70;0.20;;;;;;;;;;4981697;28;20083;-61
2022/11/15 02:11:11;;;;;;;2.20;0.40;;;;;;;;;;4979564;28;20104;-61
2022/11/15 02:13:57;;;;;;;0.30;0.30;;;;;;;;;;4980461;28;20491;-60
2022/11/15 02:17:00;;;;;;;0.73;0.45;;;;;;;;;;4980795;28;20519;-61
2022/11/15 02:20:00;;;;;;;0.50;0.30;;;;;;;;;;4981276;28;20151;-60
2022/11/15 02:22:47;;;;;;;0.70;0.20;;;;;;;;;;4981093;28;20092;-61
2022/11/15 02:25:50;;;;;;;1.27;0.30;;;;;;;;;;4979502;28;20531;-61
2022/11/15 02:28:47;;;;;;;1.60;0.20;;;;;;;;;;4979576;28;20164;-61
2022/11/15 02:31:44;;;;;;;1.23;0.43;;;;;;;;;;4979080;28;20301;-60
2022/11/15 02:34:33;;;;;;;1.02;0.43;;;;;;;;;;4981296;28;20038;-61
2022/11/15 02:37:18;;;;;;;0.30;0.30;;;;;;;;;;4980329;28;20097;-61
2022/11/15 02:40:27;;;;;;;1.95;0.40;;;;;;;;;;4980767;28;20050;-61
2022/11/15 02:47:12;;;;;;;1.52;0.30;;;;;;;;;;4979906;28;20045;-61
2022/11/15 02:49:29;;;;;;;1.85;0.30;;;;;;;;;;4980539;28;20095;-61
2022/11/15 02:52:18;;;;;;;1.67;0.40;;;;;;;;;;4979804;28;20111;-60
2022/11/15 02:55:03;;;;;;;0.20;0.20;;;;;;;;;;4982493;28;20603;-61
2022/11/15 02:58:06;;;;;;;0.80;0.30;;;;;;;;;;4980729;28;20111;-61
2022/11/15 03:00:53;;;;;;;0.43;0.32;;;;;;;;;;4980716;28;20041;-61
2022/11/15 03:03:41;;;;;;;1.17;0.35;;;;;;;;;;4979234;28;20085;-60
2022/11/15 03:06:26;;;;;;;1.02;0.50;;;;;;;;;;4984139;28;20175;-61
2022/11/15 03:09:30;;;;;;;2.60;0.40;;;;;;;;;;4991087;28;20034;-61
2022/11/15 03:12:30;;;;;;;1.08;0.30;;;;;;;;;;4990721;28;20068;-61
2022/11/15 03:15:22;;;;;;;3.03;0.40;;;;;;;;;;4989490;28;20095;-61
2022/11/15 03:18:24;;;;;;;0.40;0.30;;;;;;;;;;4983441;28;20044;-60
2022/11/15 03:21:11;;;;;;;2.30;0.45;;;;;;;;;;4972355;28;20050;-61
2022/11/15 03:23:56;;;;;;;1.40;0.43;;;;;;;;;;4981815;28;20087;-61
2022/11/15 03:26:41;;;;;;;0.82;0.20;;;;;;;;;;4988327;28;20117;-61
2022/11/15 03:29:28;;;;;;;0.10;0.10;;;;;;;;;;4982767;28;20046;-60
2022/11/15 03:32:19;;;;;;;0.38;0.30;;;;;;;;;;4984011;28;20080;-61
2022/11/15 03:35:09;;;;;;;0.20;0.20;;;;;;;;;;4974567;28;20537;-61
2022/11/15 03:38:15;;;;;;;0.70;0.32;;;;;;;;;;4979411;28;20523;-61
2022/11/15 03:41:01;;;;;;;0.47;0.30;;;;;;;;;;4984704;28;20524;-61
2022/11/15 03:44:00;;;;;;;1.20;0.45;;;;;;;;;;4980843;28;20049;-61
2022/11/15 03:46:51;;;;;;;2.83;0.47;;;;;;;;;;4976139;28;20459;-61
2022/11/15 03:49:37;;;;;;;0.57;0.30;;;;;;;;;;4988294;28;20029;-61
2022/11/15 03:52:22;;;;;;;0.43;0.43;;;;;;;;;;4989791;28;20446;-61
2022/11/15 03:55:08;;;;;;;0.32;0.10;;;;;;;;;;4974283;28;20121;-61
2022/11/15 03:57:55;;;;;;;1.75;0.40;;;;;;;;;;4979882;28;20171;-61
2022/11/15 04:00:39;;;;;;;0.17;0.17;;;;;;;;;;4985649;28;20084;-61
2022/11/15 04:03:24;;;;;;;0.35;0.20;;;;;;;;;;4982405;28;20490;-61
2022/11/15 04:06:08;;;;;;;1.25;0.35;;;;;;;;;;4983518;28;20094;-60
2022/11/15 04:08:53;;;;;;;1.20;0.35;;;;;;;;;;4982393;28;20093;-61
2022/11/15 04:11:37;;;;;;;1.65;0.40;;;;;;;;;;4982030;28;20038;-61
2022/11/15 04:14:22;;;;;;;0.57;0.30;;;;;;;;;;4984073;28;20096;-61
2022/11/15 04:17:06;;;;;;;1.55;0.30;;;;;;;;;;4973396;28;20037;-61
2022/11/15 04:26:02;;;;;;;0.85;0.30;;;;;;;;;;4980422;28;20048;-61
2022/11/15 04:31:50;;;;;;;0.75;0.20;;;;;;;;;;4978721;28;20167;-61
2022/11/15 04:34:35;;;;;;;2.15;0.40;;;;;;;;;;4975378;28;20519;-61
2022/11/15 04:37:20;;;;;;;0.80;0.20;;;;;;;;;;4981598;28;20041;-61
2022/11/15 04:40:04;;;;;;;0.63;0.28;;;;;;;;;;4976439;28;20046;-61
2022/11/15 04:42:49;;;;;;;2.47;0.30;;;;;;;;;;4979626;28;20061;-61
2022/11/15 04:45:34;;;;;;;1.88;0.30;;;;;;;;;;4975719;28;20092;-65
2022/11/15 04:48:18;;;;;;;1.40;0.30;;;;;;;;;;4981689;28;20091;-61
2022/11/15 04:51:03;;;;;;;0.28;0.20;;;;;;;;;;4986287;28;20029;-61
2022/11/15 04:53:47;;;;;;;1.95;0.32;;;;;;;;;;4985356;28;20033;-61
2022/11/15 04:56:32;;;;;;;0.65;0.40;;;;;;;;;;4984892;28;20146;-61
2022/11/15 04:59:16;;;;;;;0.57;0.30;;;;;;;;;;4978921;28;20156;-61
2022/11/15 05:02:01;;;;;;;0.55;0.45;;;;;;;;;;4977216;28;20103;-61
2022/11/15 05:04:46;;;;;;;1.75;0.30;;;;;;;;;;4984638;28;20041;-61
2022/11/15 05:07:30;;;;;;;1.65;0.20;;;;;;;;;;4982721;28;20038;-61
2022/11/15 05:10:15;;;;;;;1.27;0.25;;;;;;;;;;4979463;28;20096;-61
2022/11/15 05:13:00;;;;;;;1.90;0.30;;;;;;;;;;4984548;28;20033;-61
2022/11/15 05:15:44;;;;;;;2.42;0.47;;;;;;;;;;4982088;28;20103;-61
2022/11/15 05:18:29;;;;;;;0.45;0.35;;;;;;;;;;4983714;28;20033;-61
2022/11/15 05:21:15;;;;;;;0.55;0.13;;;;;;;;;;4986970;28;20068;-61
2022/11/15 05:24:00;;;;;;;0.55;0.30;;;;;;;;;;4982910;28;20045;-61
2022/11/15 05:26:44;;;;;;;0.20;0.20;;;;;;;;;;4985030;28;20480;-61
2022/11/15 05:29:29;;;;;;;0.98;0.28;;;;;;;;;;4986244;28;20054;-61
2022/11/15 05:32:14;;;;;;;0.20;0.20;;;;;;;;;;4986822;28;20499;-61
2022/11/15 05:34:59;;;;;;;0.38;0.20;;;;;;;;;;4987560;28;20125;-61
2022/11/15 05:37:44;;;;;;;2.83;0.30;;;;;;;;;;4986795;28;20522;-61
2022/11/15 05:40:29;;;;;;;2.20;0.30;;;;;;;;;;4981708;28;20073;-61
2022/11/15 05:43:14;;;;;;;0.30;0.30;;;;;;;;;;4986118;28;20072;-61
2022/11/15 05:45:59;;;;;;;0.55;0.30;;;;;;;;;;4979389;28;20041;-60
2022/11/15 05:48:46;;;;;;;0.40;0.30;;;;;;;;;;4987080;28;20049;-61
2022/11/15 05:51:31;;;;;;;1.17;0.22;;;;;;;;;;4977590;28;20058;-61
2022/11/15 05:54:16;;;;;;;2.47;0.30;;;;;;;;;;4985843;28;20037;-61
2022/11/15 05:57:01;;;;;;;0.32;0.28;;;;;;;;;;4983651;28;20037;-61
2022/11/15 05:59:46;;;;;;;0.82;0.40;;;;;;;;;;4981688;28;20454;-61
2022/11/15 06:02:30;;;;;;;2.42;0.40;;;;;;;;;;4982551;28;20404;-61
2022/11/15 06:05:15;;;;;;;2.75;0.35;;;;;;;;;;4981583;28;20100;-61
2022/11/15 06:08:00;;;;;;;5.05;0.40;;;;;;;;;;4986906;28;20033;-61
2022/11/15 06:10:45;;;;;;;1.52;0.20;;;;;;;;;;4982854;28;20096;-61
2022/11/15 06:13:29;;;;;;;0.25;0.20;;;;;;;;;;4979981;28;20077;-61
2022/11/15 06:16:14;;;;;;;2.67;0.45;;;;;;;;;;4989352;28;20102;-61
2022/11/15 06:18:58;;;;;;;2.85;0.30;;;;;;;;;;4986711;28;20057;-62
2022/11/15 06:21:43;;;;;;;0.40;0.22;;;;;;;;;;4981443;28;20057;-63
2022/11/15 06:24:28;;;;;;;0.47;0.22;;;;;;;;;;4982202;28;20033;-61
2022/11/15 06:27:12;;;;;;;0.82;0.20;;;;;;;;;;4981177;28;20069;-61
2022/11/15 06:29:57;;;;;;;1.95;0.30;;;;;;;;;;4981518;28;20076;-61
2022/11/15 06:32:41;;;;;;;1.80;0.30;;;;;;;;;;4975809;28;20169;-61
2022/11/15 06:35:26;;;;;;;0.35;0.13;;;;;;;;;;4981202;28;20085;-63
2022/11/15 06:38:11;;;;;;;1.67;0.28;;;;;;;;;;4974442;28;20125;-64
2022/11/15 06:41:01;;;;;;;2.50;0.50;;;;;;;;;;4980520;28;20072;-62
2022/11/15 06:43:46;;;;;;;0.25;0.22;;;;;;;;;;4985093;28;20052;-61
2022/11/15 06:46:30;;;;;;;1.45;0.20;;;;;;;;;;4980496;28;20591;-61
2022/11/15 06:49:15;;;;;;;0.30;0.30;;;;;;;;;;4985833;28;20058;-63
2022/11/15 06:51:59;;;;;;;2.30;0.40;;;;;;;;;;4984276;28;20061;-63
2022/11/15 06:54:44;;;;;;;0.60;0.47;;;;;;;;;;4989195;28;20096;-63
2022/11/15 06:57:29;;;;;;;4.07;0.90;;;;;;;;;;4983094;28;20089;-63
2022/11/15 07:00:14;;;;;;;4.78;0.90;;;;;;;;;;4988371;28;20580;-61
2022/11/15 07:03:02;;;;;;;4.25;0.88;;;;;;;;;;4988854;28;20042;-61
2022/11/15 07:05:51;;;;;;;5.13;0.95;;;;;;;;;;4989864;28;20048;-61
2022/11/15 07:08:36;;;;;;;7.60;1.00;;;;;;;;;;4989819;28;20057;-61
2022/11/15 07:11:21;;;;;;;8.55;1.27;;;;;;;;;;4981889;28;20026;-61
2022/11/15 07:14:05;;;;;;;6.55;1.13;;;;;;;;;;4988638;28;20089;-61
2022/11/15 07:16:50;;;;;;;11.75;1.88;;;;;;;;;;4989037;28;20053;-61
2022/11/15 07:19:34;;;;;;;9.45;1.80;;;;;;;;;;4989512;28;20065;-61
2022/11/15 07:22:19;;;;;;;11.07;2.17;;;;;;;;;;4989392;28;20036;-61
2022/11/15 07:25:03;;;;;;;16.02;2.55;;;;;;;;;;4977111;28;20416;-61
2022/11/15 07:27:55;;;;;;;16.35;2.30;;;;;;;;;;4989693;28;20451;-61
2022/11/15 07:30:39;;;;;;;13.90;2.80;;;;;;;;;;4989416;28;20449;-61
2022/11/15 07:33:24;;;;;;;17.73;2.58;;;;;;;;;;4987035;28;20053;-61
2022/11/15 07:36:08;;;;;;;16.92;2.28;;;;;;;;;;4989987;28;20088;-61
2022/11/15 07:38:53;;;;;;;9.95;2.47;;;;;;;;;;4989468;28;20404;-61
2022/11/15 07:41:38;;;;;;;12.32;2.42;;;;;;;;;;4987292;28;20041;-61
2022/11/15 07:44:23;;;;;;;18.00;2.78;;;;;;;;;;4977265;28;20420;-61
2022/11/15 07:47:08;;;;;;;10.75;2.47;;;;;;;;;;4989256;28;20411;-61
2022/11/15 07:49:52;;;;;;;13.95;2.88;;;;;;;;;;4989697;28;20057;-61
2022/11/15 07:52:37;;;;;;;16.23;2.50;;;;;;;;;;4987498;28;20506;-61
2022/11/15 07:55:22;;;;;;;10.07;2.53;;;;;;;;;;4989001;28;20045;-61
2022/11/15 07:58:10;;;;;;;14.50;2.97;;;;;;;;;;4987071;28;20245;-63
2022/11/15 08:00:55;;;;;;;15.95;2.00;;;;;;;;;;4978629;28;20053;-63
2022/11/15 08:03:40;;;;;;;16.90;2.45;;;;;;;;;;4988434;28;20053;-63
2022/11/15 08:06:24;;;;;;;16.73;2.72;;;;;;;;;;4989395;28;20037;-63
2022/11/15 08:09:08;;;;;;;23.20;4.10;;;;;;;;;;4989425;28;20045;-61
2022/11/15 08:11:53;;;;;;;21.67;3.42;;;;;;;;;;4978122;28;20057;-61
2022/11/15 08:14:38;;;;;;;26.92;4.38;;;;;;;;;;4987960;28;20552;-61
2022/11/15 08:17:26;;;;;;;16.13;3.08;;;;;;;;;;4988771;28;20044;-61
2022/11/15 08:20:10;;;;;;;15.07;2.80;;;;;;;;;;4976626;28;20514;-61
2022/11/15 08:22:56;;;;;;;15.98;3.17;;;;;;;;;;4985866;28;20057;-61
2022/11/15 08:25:41;;;;;;;18.65;2.55;;;;;;;;;;4987181;28;20045;-61
2022/11/15 08:28:25;;;;;;;16.55;2.92;;;;;;;;;;4986373;28;20092;-61
2022/11/15 08:31:14;;;;;;;15.00;2.40;;;;;;;;;;4987872;28;20126;-61
2022/11/15 08:33:58;;;;;;;17.42;2.65;;;;;;;;;;4986440;28;20049;-61
2022/11/15 08:36:43;;;;;;;13.18;2.70;;;;;;;;;;4989479;28;20045;-61
2022/11/15 08:39:27;;;;;;;14.35;3.35;;;;;;;;;;4988994;28;20061;-61
2022/11/15 08:42:13;;;;;;;16.25;3.13;;;;;;;;;;4989020;28;20090;-61
2022/11/15 08:44:57;;;;;;;12.05;2.78;;;;;;;;;;4987418;28;20049;-61
2022/11/15 08:47:42;;;;;;;11.35;2.47;;;;;;;;;;4980568;28;20091;-61
2022/11/15 08:50:26;;;;;;;14.13;3.28;;;;;;;;;;4991189;28;20084;-61
2022/11/15 08:53:11;;;;;;;13.05;2.45;;;;;;;;;;4991395;28;20087;-61
2022/11/15 08:55:56;;;;;;;11.68;2.25;;;;;;;;;;4981256;28;20122;-61
2022/11/15 08:58:40;;;;;;;12.38;2.47;;;;;;;;;;4991852;28;20042;-61
2022/11/15 09:01:24;;;;;;;14.88;2.75;;;;;;;;;;4992556;28;20083;-61
2022/11/15 09:04:09;;;;;;;9.07;1.92;;;;;;;;;;4980758;28;20104;-60
2022/11/15 09:06:54;;;;;;;8.85;1.80;;;;;;;;;;4984328;28;20080;-61
2022/11/15 09:09:38;;;;;;;8.57;1.52;;;;;;;;;;4988918;28;20155;-61
2022/11/15 09:12:23;;;;;;;8.13;2.88;;;;;;;;;;4992697;28;20115;-61
2022/11/15 09:15:08;;;;;;;9.30;1.52;;;;;;;;;;4986947;28;20406;-61
2022/11/15 09:17:53;;;;;;;9.10;1.50;;;;;;;;;;4991678;28;20057;-61
2022/11/15 09:20:38;;;;;;;8.10;1.55;;;;;;;;;;4989391;28;20085;-61
2022/11/15 09:23:22;;;;;;;5.25;1.80;;;;;;;;;;4983865;28;20040;-61
2022/11/15 09:26:07;;;;;;;6.57;1.83;;;;;;;;;;4983928;28;20086;-61
2022/11/15 09:28:52;;;;;;;12.15;2.42;;;;;;;;;;4991818;28;20045;-61
2022/11/15 09:31:36;;;;;;;8.45;1.65;;;;;;;;;;4991935;28;20071;-61
2022/11/15 09:34:21;;;;;;;9.90;2.20;;;;;;;;;;4990787;28;20049;-61
2022/11/15 09:37:06;;;;;;;10.85;2.65;;;;;;;;;;4991292;28;20041;-61
2022/11/15 09:39:50;;;;;;;8.32;2.83;;;;;;;;;;4989948;28;20040;-61
2022/11/15 09:42:50;;;;;;;11.05;2.50;;;;;;;;;;4991457;28;20079;-61
2022/11/15 09:45:42;;;;;;;12.35;2.40;;;;;;;;;;4988931;28;20034;-60
2022/11/15 09:48:27;;;;;;;13.45;3.40;;;;;;;;;;4990135;28;20037;-61
2022/11/15 09:51:15;;;;;;;11.82;2.25;;;;;;;;;;4990029;28;20061;-61
2022/11/15 09:54:03;;;;;;;14.10;3.22;;;;;;;;;;4990496;28;20029;-61
2022/11/15 09:56:31;;;;;;;19.17;3.55;;;;;;;;;;4990937;28;20070;-61
2022/11/15 09:58:57;;;;;;;13.70;2.88;;;;;;;;;;4985854;28;20066;-61
2022/11/15 10:01:33;;;;;;;15.23;3.40;;;;;;;;;;4990479;28;20038;-61
2022/11/15 10:03:59;;;;;;;13.90;2.60;;;;;;;;;;4986998;28;20047;-61
2022/11/15 10:06:26;;;;;;;12.80;2.22;;;;;;;;;;4990916;28;20109;-61
2022/11/15 10:09:01;;;;;;;12.82;2.22;;;;;;;;;;4990362;28;20022;-61
2022/11/15 10:11:30;;;;;;;12.52;2.35;;;;;;;;;;4988191;28;20046;-61
2022/11/15 10:13:59;;;;;;;8.68;1.92;;;;;;;;;;4990971;28;20050;-61
2022/11/15 10:16:29;;;;;;;14.43;2.60;;;;;;;;;;4976433;28;20026;-61
2022/11/15 10:18:55;;;;;;;16.40;2.20;;;;;;;;;;4980643;28;20058;-61
2022/11/15 10:21:23;;;;;;;12.90;2.20;;;;;;;;;;4990576;28;20495;-60
2022/11/15 10:23:51;;;;;;;11.88;2.33;;;;;;;;;;4990625;28;20503;-60
2022/11/15 10:26:17;;;;;;;14.65;2.33;;;;;;;;;;4991036;28;20454;-61
2022/11/15 10:28:43;;;;;;;15.65;2.75;;;;;;;;;;4989791;28;20113;-61
2022/11/15 10:31:26;;;;;;;10.55;3.25;;;;;;;;;;4990699;28;20106;-61
2022/11/15 10:33:59;;;;;;;14.38;2.33;;;;;;;;;;4990438;28;20027;-60
2022/11/15 10:36:25;;;;;;;12.73;2.20;;;;;;;;;;4989659;28;20372;-60
2022/11/15 10:38:52;;;;;;;15.10;2.28;;;;;;;;;;4990623;28;20050;-61
2022/11/15 10:41:20;;;;;;;13.45;2.55;;;;;;;;;;4989753;28;20025;-61
2022/11/15 10:44:01;;;;;;;10.02;1.58;;;;;;;;;;4990121;28;20030;-60
2022/11/15 10:46:27;;;;;;;11.73;1.88;;;;;;;;;;4989408;28;20034;-60
2022/11/15 10:48:53;;;;;;;10.63;2.03;;;;;;;;;;4990410;28;20026;-60
2022/11/15 10:51:28;;;;;;;9.75;1.67;;;;;;;;;;4990615;28;20023;-60
2022/11/15 10:53:56;;;;;;;11.30;2.13;;;;;;;;;;4988088;28;20045;-60
2022/11/15 10:56:23;;;;;;;13.90;2.22;;;;;;;;;;4990736;28;20026;-61
2022/11/15 10:58:56;;;;;;;4.68;1.45;;;;;;;;;;4990243;28;20033;-60
2022/11/15 11:01:23;;;;;;;10.23;2.22;;;;;;;;;;4987966;28;20033;-62
2022/11/15 11:04:02;;;;;;;9.80;1.70;;;;;;;;;;4977510;28;20046;-60
2022/11/15 11:06:28;;;;;;;16.15;2.20;;;;;;;;;;4990154;28;20039;-60
2022/11/15 11:08:59;;;;;;;11.27;2.63;;;;;;;;;;4990188;28;20026;-61
2022/11/15 11:11:26;;;;;;;10.75;2.15;;;;;;;;;;4989517;28;20096;-61
2022/11/15 11:13:52;;;;;;;10.65;1.98;;;;;;;;;;4990214;28;20076;-61
2022/11/15 11:16:18;;;;;;;11.77;2.72;;;;;;;;;;4989095;28;20030;-62
2022/11/15 11:18:59;;;;;;;11.00;1.80;;;;;;;;;;4990083;28;20045;-62
2022/11/15 11:21:38;;;;;;;11.52;1.92;;;;;;;;;;4989983;28;20030;-62
2022/11/15 11:24:04;;;;;;;10.85;2.20;;;;;;;;;;4987468;28;20440;-63
2022/11/15 11:26:30;;;;;;;6.68;1.30;;;;;;;;;;4990020;28;20113;-61
2022/11/15 11:29:25;;;;;;;8.60;1.45;;;;;;;;;;4989700;28;20040;-60
2022/11/15 11:31:51;;;;;;;7.30;1.40;;;;;;;;;;5013537;28;20041;-62
2022/11/15 11:34:31;;;;;;;4.55;1.63;;;;;;;;;;5027407;28;20078;-62
2022/11/15 11:37:23;;;;;;;6.90;1.60;;;;;;;;;;5029917;28;20077;-61
2022/11/15 11:40:01;;;;;;;5.47;1.20;;;;;;;;;;5025147;28;20045;-62
2022/11/15 11:42:27;;;;;;;7.90;1.35;;;;;;;;;;5027943;28;20037;-62
2022/11/15 11:45:04;;;;;;;6.32;1.35;;;;;;;;;;5029527;28;20072;-62
2022/11/15 11:47:37;;;;;;;8.05;1.42;;;;;;;;;;5020895;28;20038;-63
2022/11/15 11:50:15;;;;;;;6.45;1.27;;;;;;;;;;5021073;28;20041;-61
2022/11/15 11:52:41;;;;;;;7.65;1.52;;;;;;;;;;5019143;28;20036;-61
2022/11/15 11:55:26;;;;;;;13.80;3.25;;;;;;;;;;5022404;28;20029;-61
2022/11/15 11:57:58;;;;;;;8.05;1.70;;;;;;;;;;5018829;28;20041;-64
2022/11/15 12:00:28;;;;;;;7.22;1.65;;;;;;;;;;5019584;28;20037;-61
2022/11/15 12:03:06;;;;;;;5.18;1.60;;;;;;;;;;5019539;28;20556;-61
2022/11/15 12:05:32;;;;;;;8.65;1.80;;;;;;;;;;5023107;28;20407;-61
2022/11/15 12:08:17;;;;;;;10.80;2.03;;;;;;;;;;5003457;28;20460;-60
2022/11/15 12:10:46;;;;;;;5.65;1.83;;;;;;;;;;4978826;28;20023;-61
2022/11/15 12:13:20;;;;;;;6.05;1.42;;;;;;;;;;4975670;28;20022;-61
2022/11/15 12:15:49;;;;;;;5.03;1.20;;;;;;;;;;4984148;28;20022;-61
2022/11/15 12:18:16;;;;;;;5.53;1.25;;;;;;;;;;4972819;28;20030;-61
2022/11/15 12:21:01;;;;;;;5.50;1.00;;;;;;;;;;4970590;28;20041;-60
2022/11/15 12:23:29;;;;;;;6.03;1.05;;;;;;;;;;4973430;28;20511;-60
2022/11/15 12:26:04;;;;;;;3.90;0.82;;;;;;;;;;4974626;28;20023;-60
2022/11/15 12:28:49;;;;;;;3.38;1.30;;;;;;;;;;4969303;28;20023;-60
2022/11/15 12:31:18;;;;;;;6.47;1.20;;;;;;;;;;4975256;28;20031;-61
2022/11/15 12:33:45;;;;;;;7.07;1.05;;;;;;;;;;4978548;28;20105;-60
2022/11/15 12:36:13;;;;;;;5.53;1.25;;;;;;;;;;4969172;28;20035;-61
2022/11/15 12:38:51;;;;;;;7.65;1.00;;;;;;;;;;4969458;28;20038;-61
2022/11/15 12:41:18;;;;;;;3.50;0.93;;;;;;;;;;4984232;28;20035;-60
2022/11/15 12:43:45;;;;;;;3.75;1.08;;;;;;;;;;4987207;28;20053;-61
2022/11/15 12:46:29;;;;;;;2.08;0.88;;;;;;;;;;4988382;28;20034;-61
2022/11/15 12:49:00;;;;;;;2.40;0.80;;;;;;;;;;4989567;28;20031;-60
2022/11/15 12:51:46;;;;;;;4.47;0.70;;;;;;;;;;4987927;28;20053;-60
2022/11/15 12:54:22;;;;;;;2.92;0.65;;;;;;;;;;4969476;28;20408;-61
2022/11/15 12:57:03;;;;;;;4.20;1.02;;;;;;;;;;4984299;28;20026;-60
2022/11/15 12:59:49;;;;;;;6.20;1.00;;;;;;;;;;4989106;28;20035;-61
2022/11/15 13:02:20;;;;;;;3.30;0.73;;;;;;;;;;4972406;28;20047;-62
2022/11/15 13:04:47;;;;;;;7.88;1.15;;;;;;;;;;4987486;28;20090;-62
2022/11/15 13:07:32;;;;;;;5.90;1.10;;;;;;;;;;4989267;28;20046;-60
2022/11/15 13:09:58;;;;;;;4.32;1.15;;;;;;;;;;4989249;28;20056;-60
2022/11/15 13:12:27;;;;;;;8.93;1.48;;;;;;;;;;4988206;28;20023;-61
2022/11/15 13:14:54;;;;;;;9.95;1.33;;;;;;;;;;4988939;28;20028;-60
2022/11/15 13:17:20;;;;;;;6.57;1.98;;;;;;;;;;4989018;28;20056;-61
2022/11/15 13:19:47;;;;;;;13.45;1.45;;;;;;;;;;4988212;28;20026;-61
2022/11/15 13:25:02;;;;;;;11.00;2.03;;;;;;;;;;4987166;28;20034;-61
2022/11/15 13:27:28;;;;;;;6.70;1.75;;;;;;;;;;4987859;28;21660;-61
2022/11/15 13:29:54;;;;;;;9.80;2.03;;;;;;;;;;4988966;28;20022;-61
2022/11/15 13:32:21;;;;;;;8.73;2.20;;;;;;;;;;4987782;28;20026;-62
2022/11/15 13:34:49;;;;;;;9.95;2.33;;;;;;;;;;4992476;28;20041;-62
2022/11/15 13:37:21;;;;;;;11.50;2.08;;;;;;;;;;4991390;28;20071;-63
2022/11/15 13:39:48;;;;;;;9.90;1.73;;;;;;;;;;4992310;28;20082;-63
2022/11/15 13:42:20;;;;;;;8.55;1.60;;;;;;;;;;4991900;28;20035;-63
2022/11/15 13:44:46;;;;;;;;;;;;;;;;;;4983006;28;20069;-63
2022/11/15 13:47:14;;;;;;;12.82;2.25;;;;;;;;;;4972560;28;19945;-62
2022/11/15 13:49:41;;;;;;;8.73;1.70;;;;;;;;;;4974518;28;20038;-62
2022/11/15 13:52:08;;;;;;;9.00;1.52;;;;;;;;;;4991651;28;20067;-62
2022/11/15 13:54:36;;;;;;;13.95;2.45;;;;;;;;;;4991850;28;20022;-61
2022/11/15 13:57:03;;;;;;;14.80;2.40;;;;;;;;;;4991790;28;20037;-61
2022/11/15 13:59:37;;;;;;;14.52;2.17;;;;;;;;;;4991987;28;20396;-60
2022/11/15 14:02:11;;;;;;;6.22;1.52;;;;;;;;;;4990898;28;20597;-61
2022/11/15 14:04:39;;;;;;;12.98;1.50;;;;;;;;;;4977589;28;20055;-61
2022/11/15 14:07:05;;;;;;;10.45;1.98;;;;;;;;;;4988162;28;20069;-61
2022/11/15 14:09:38;;;;;;;5.93;1.80;;;;;;;;;;4991542;28;20053;-60
2022/11/15 14:12:22;;;;;;;7.22;1.58;;;;;;;;;;4991510;28;20030;-61
2022/11/15 14:14:49;;;;;;;9.07;1.90;;;;;;;;;;4990049;28;20030;-60
2022/11/15 14:17:41;;;;;;;10.18;1.73;;;;;;;;;;4991642;28;20396;-62
2022/11/15 14:20:27;;;;;;;10.33;1.90;;;;;;;;;;4988341;28;20112;-62
2022/11/15 14:22:55;;;;;;;9.02;1.80;;;;;;;;;;4989413;28;20358;-63
2022/11/15 14:25:22;;;;;;;13.38;2.20;;;;;;;;;;4988903;28;20031;-63
2022/11/15 14:28:06;;;;;;;9.88;1.70;;;;;;;;;;4991446;28;20127;-62
2022/11/15 14:30:32;;;;;;;15.23;1.80;;;;;;;;;;4991343;28;20034;-61
2022/11/15 14:32:58;;;;;;;6.32;1.42;;;;;;;;;;4989767;28;20019;-61
2022/11/15 14:35:25;;;;;;;10.10;1.58;;;;;;;;;;4991091;28;20031;-61
2022/11/15 14:37:51;;;;;;;9.20;1.70;;;;;;;;;;4990472;28;20032;-61
2022/11/15 14:40:18;;;;;;;8.77;1.88;;;;;;;;;;4988043;28;20039;-60
2022/11/15 14:42:45;;;;;;;7.28;2.00;;;;;;;;;;4982630;28;20034;-60
2022/11/15 14:45:15;;;;;;;4.60;1.45;;;;;;;;;;4981872;28;20119;-60
2022/11/15 14:47:42;;;;;;;7.13;1.75;;;;;;;;;;4981462;28;20484;-61
2022/11/15 14:50:12;;;;;;;8.40;1.35;;;;;;;;;;4981432;28;20076;-61
2022/11/15 14:52:38;;;;;;;5.30;1.77;;;;;;;;;;4981374;28;20121;-61
2022/11/15 14:55:11;;;;;;;16.23;3.30;;;;;;;;;;4978702;28;20080;-61
2022/11/15 14:57:37;;;;;;;10.77;1.52;;;;;;;;;;4981324;28;20045;-61
2022/11/15 15:00:05;;;;;;;5.07;1.80;;;;;;;;;;4979851;28;20023;-61
2022/11/15 15:02:40;;;;;;;12.23;1.90;;;;;;;;;;4982907;28;20514;-60
2022/11/15 15:05:26;;;;;;;6.45;1.60;;;;;;;;;;4985667;28;20041;-61
2022/11/15 15:07:52;;;;;;;11.00;1.30;;;;;;;;;;4986484;28;20018;-61
2022/11/15 15:10:19;;;;;;;10.82;1.98;;;;;;;;;;4985020;28;20119;-61
2022/11/15 15:12:45;;;;;;;13.60;1.55;;;;;;;;;;4982722;28;20042;-61
2022/11/15 15:15:16;;;;;;;5.20;1.23;;;;;;;;;;4991152;28;20519;-61
2022/11/15 15:17:42;;;;;;;9.52;1.83;;;;;;;;;;4986783;28;20022;-61
2022/11/15 15:20:09;;;;;;;14.93;1.83;;;;;;;;;;4979021;28;20031;-61
2022/11/15 15:22:35;;;;;;;10.43;1.65;;;;;;;;;;4989207;28;20046;-61
2022/11/15 15:25:02;;;;;;;11.55;2.38;;;;;;;;;;4986054;28;20401;-61
2022/11/15 15:27:28;;;;;;;7.68;2.00;;;;;;;;;;4998618;28;20023;-61
2022/11/15 15:29:54;;;;;;;5.75;1.35;;;;;;;;;;4985457;28;20049;-62
2022/11/15 15:32:20;;;;;;;12.88;1.83;;;;;;;;;;4980799;28;20034;-61
2022/11/15 15:34:47;;;;;;;13.27;1.88;;;;;;;;;;4980264;28;20094;-61
2022/11/15 15:37:13;;;;;;;15.02;2.30;;;;;;;;;;4980064;28;20030;-61
2022/11/15 15:39:39;;;;;;;10.45;2.30;;;;;;;;;;4981293;28;20026;-61
2022/11/15 15:42:05;;;;;;;13.48;2.15;;;;;;;;;;4982470;28;20368;-61
2022/11/15 15:44:31;;;;;;;11.82;1.70;;;;;;;;;;4980865;28;20030;-61
2022/11/15 15:46:57;;;;;;;14.85;2.30;;;;;;;;;;4979109;28;20719;-61
2022/11/15 15:49:23;;;;;;;13.23;2.10;;;;;;;;;;4981460;28;20743;-61
2022/11/15 15:51:50;;;;;;;16.10;2.45;;;;;;;;;;4976579;28;20492;-61
2022/11/15 15:54:16;;;;;;;15.40;2.45;;;;;;;;;;4978965;28;20084;-61
2022/11/15 15:56:42;;;;;;;18.58;3.28;;;;;;;;;;4981391;28;20464;-61
2022/11/15 15:59:08;;;;;;;16.50;1.60;;;;;;;;;;4989894;28;20040;-61
2022/11/15 16:01:34;;;;;;;12.98;2.80;;;;;;;;;;4983145;28;20487;-60
2022/11/15 16:04:00;;;;;;;12.13;2.75;;;;;;;;;;4980014;28;20091;-61
2022/11/15 16:06:38;;;;;;;17.70;2.75;;;;;;;;;;4974604;28;20059;-61
2022/11/15 16:09:04;;;;;;;16.05;2.05;;;;;;;;;;4981700;28;20027;-61